createdAt,value
2018-11-07T00:02:50.727Z,7.33
2018-11-07T00:05:54.749Z,7.33
2018-11-07T00:08:58.621Z,7.34
2018-11-07T00:12:02.514Z,7.38
2018-11-07T00:15:08.382Z,7.38
2018-11-07T00:18:12.253Z,7.37
2018-11-07T00:21:16.344Z,7.42
2018-11-07T00:24:20.567Z,7.36
2018-11-07T00:27:24.446Z,7.38
2018-11-07T00:30:28.327Z,7.36
2018-11-07T00:33:32.197Z,7.35
2018-11-07T00:36:36.076Z,7.41
2018-11-07T00:39:39.950Z,7.37
2018-11-07T00:42:43.841Z,7.35
2018-11-07T00:45:47.721Z,7.38
2018-11-07T00:48:51.597Z,7.37
2018-11-07T00:51:55.490Z,7.40
2018-11-07T00:54:59.376Z,7.39
2018-11-07T00:58:03.311Z,7.38
2018-11-07T01:01:07.690Z,7.39
2018-11-07T01:04:11.591Z,7.39
2018-11-07T01:07:15.482Z,7.39
2018-11-07T01:10:19.367Z,7.36
2018-11-07T01:13:23.439Z,7.37
2018-11-07T01:16:27.523Z,7.34
2018-11-07T01:19:31.591Z,7.34
2018-11-07T01:22:35.473Z,7.39
2018-11-07T01:25:39.370Z,7.35
2018-11-07T01:28:43.575Z,7.36
2018-11-07T01:31:47.817Z,7.32
2018-11-07T01:34:51.937Z,7.29
2018-11-07T01:37:56.153Z,7.34
2018-11-07T01:41:00.043Z,7.29
2018-11-07T01:44:04.114Z,7.30
2018-11-07T01:47:08.416Z,7.31
2018-11-07T01:50:13.239Z,7.24
2018-11-07T01:53:17.117Z,7.26
2018-11-07T01:56:21.015Z,7.23
2018-11-07T01:59:25.265Z,7.27
2018-11-07T02:02:29.488Z,7.27
2018-11-07T02:05:33.374Z,7.30
2018-11-07T02:08:37.259Z,7.35
2018-11-07T02:11:41.149Z,7.37
2018-11-07T02:14:45.049Z,7.39
2018-11-07T02:17:48.920Z,7.40
2018-11-07T02:20:52.804Z,7.39
2018-11-07T02:23:56.696Z,7.37
2018-11-07T02:27:00.573Z,7.40
2018-11-07T02:30:05.642Z,7.43
2018-11-07T02:33:09.871Z,7.40
2018-11-07T02:36:13.733Z,7.43
2018-11-07T02:39:17.827Z,7.40
2018-11-07T02:42:21.703Z,7.41
2018-11-07T02:45:25.801Z,7.38
2018-11-07T02:48:29.694Z,7.38
2018-11-07T02:51:33.778Z,7.32
2018-11-07T02:54:37.882Z,7.33
2018-11-07T02:57:41.753Z,7.36
2018-11-07T03:00:45.983Z,7.29
2018-11-07T03:03:50.085Z,7.26
2018-11-07T03:06:54.154Z,7.24
2018-11-07T03:09:58.103Z,7.27
2018-11-07T03:13:02.129Z,7.24
2018-11-07T03:16:06.220Z,7.19
2018-11-07T03:19:10.441Z,7.18
2018-11-07T03:22:14.661Z,7.18
2018-11-07T03:25:18.549Z,7.19
2018-11-07T03:28:22.432Z,7.16
2018-11-07T03:31:26.516Z,7.12
2018-11-07T03:34:30.382Z,7.12
2018-11-07T03:37:34.600Z,7.15
2018-11-07T03:40:38.823Z,7.16
2018-11-07T03:43:42.907Z,7.19
2018-11-07T03:46:46.982Z,7.22
2018-11-07T03:49:50.852Z,7.23
2018-11-07T03:52:54.777Z,7.24
2018-11-07T03:55:58.811Z,7.27
2018-11-07T03:59:02.703Z,7.26
2018-11-07T04:02:07.117Z,7.24
2018-11-07T04:05:12.144Z,7.21
2018-11-07T04:08:16.217Z,7.22
2018-11-07T04:11:20.106Z,7.18
2018-11-07T04:14:24.243Z,7.17
2018-11-07T04:17:28.112Z,7.20
2018-11-07T04:20:32.082Z,7.15
2018-11-07T04:23:36.197Z,7.15
2018-11-07T04:26:40.085Z,7.14
2018-11-07T04:29:44.173Z,7.17
2018-11-07T04:32:48.268Z,7.15
2018-11-07T04:35:52.140Z,7.18
2018-11-07T04:38:56.558Z,7.19
2018-11-07T04:42:00.611Z,7.24
2018-11-07T04:45:04.500Z,7.25
2018-11-07T04:48:08.398Z,7.27
2018-11-07T04:51:12.869Z,7.29
2018-11-07T04:54:16.749Z,7.31
2018-11-07T04:57:20.843Z,7.29
2018-11-07T05:00:25.030Z,7.32
2018-11-07T05:03:29.369Z,7.36
2018-11-07T05:06:33.245Z,7.35
2018-11-07T05:09:37.129Z,7.37
2018-11-07T05:12:41.341Z,7.38
2018-11-07T05:15:45.234Z,7.40
2018-11-07T05:18:49.108Z,7.43
2018-11-07T05:21:53.321Z,7.41
2018-11-07T05:24:57.210Z,7.46
2018-11-07T05:28:01.115Z,7.45
2018-11-07T05:31:05.191Z,7.45
2018-11-07T05:34:09.430Z,7.46
2018-11-07T05:37:13.309Z,7.50
2018-11-07T05:40:17.201Z,7.46
2018-11-07T05:43:21.289Z,7.51
2018-11-07T05:46:25.371Z,7.49
2018-11-07T05:49:29.245Z,7.51
2018-11-07T05:52:33.656Z,7.54
2018-11-07T05:55:37.549Z,7.55
2018-11-07T05:58:41.426Z,7.54
2018-11-07T06:01:45.858Z,7.53
2018-11-07T06:04:49.754Z,7.54
2018-11-07T06:07:53.635Z,7.57
2018-11-07T06:10:57.505Z,7.57
2018-11-07T06:14:01.384Z,7.60
2018-11-07T06:17:06.121Z,7.60
2018-11-07T06:20:11.263Z,7.58
2018-11-07T06:23:15.155Z,7.57
2018-11-07T06:26:19.264Z,7.60
2018-11-07T06:29:23.225Z,7.57
2018-11-07T06:32:27.107Z,7.69
2018-11-07T06:35:31.008Z,7.70
2018-11-07T06:38:34.908Z,7.67
2018-11-07T06:41:39.179Z,7.65
2018-11-07T06:44:43.269Z,7.67
2018-11-07T06:47:47.160Z,7.72
2018-11-07T06:50:51.062Z,7.74
2018-11-07T06:53:54.950Z,7.76
2018-11-07T06:56:58.841Z,7.77
2018-11-07T07:00:02.977Z,7.78
2018-11-07T07:03:06.873Z,7.79
2018-11-07T07:06:10.929Z,7.79
2018-11-07T07:09:14.824Z,7.80
2018-11-07T07:12:18.712Z,7.82
2018-11-07T07:15:22.605Z,7.84
2018-11-07T07:18:26.822Z,7.85
2018-11-07T07:21:30.705Z,7.87
2018-11-07T07:24:34.595Z,7.89
2018-11-07T07:27:38.516Z,7.90
2018-11-07T07:30:42.394Z,7.90
2018-11-07T07:33:46.552Z,7.91
2018-11-07T07:36:50.903Z,7.93
2018-11-07T07:39:54.774Z,7.93
2018-11-07T07:42:58.850Z,7.95
2018-11-07T07:46:03.745Z,7.98
2018-11-07T07:49:07.976Z,7.97
2018-11-07T07:52:12.049Z,7.98
2018-11-07T07:55:15.942Z,7.98
2018-11-07T07:58:19.820Z,7.99
2018-11-07T08:01:23.701Z,8.03
2018-11-07T08:04:27.585Z,8.06
2018-11-07T08:07:31.457Z,8.06
2018-11-07T08:10:35.359Z,8.07
2018-11-07T08:13:39.517Z,8.12
2018-11-07T08:16:43.893Z,8.12
2018-11-07T08:19:48.117Z,8.13
2018-11-07T08:22:52.000Z,8.14
2018-11-07T08:25:55.881Z,8.16
2018-11-07T08:29:00.216Z,8.17
2018-11-07T08:32:04.273Z,8.19
2018-11-07T08:35:09.439Z,8.21
2018-11-07T08:38:13.310Z,8.23
2018-11-07T08:41:17.195Z,8.24
2018-11-07T08:44:21.623Z,8.29
2018-11-07T08:47:25.505Z,8.32
2018-11-07T08:50:29.384Z,8.34
2018-11-07T08:53:33.265Z,8.36
2018-11-07T08:56:37.717Z,8.39
2018-11-07T08:59:41.933Z,8.41
2018-11-07T09:02:46.091Z,8.43
2018-11-07T09:05:49.966Z,8.46
2018-11-07T09:08:54.190Z,8.49
2018-11-07T09:11:58.126Z,8.51
2018-11-07T09:15:02.206Z,8.53
2018-11-07T09:18:06.321Z,8.54
2018-11-07T09:21:10.539Z,8.57
2018-11-07T09:24:15.003Z,8.60
2018-11-07T09:27:19.029Z,8.61
2018-11-07T09:30:23.758Z,8.62
2018-11-07T09:33:27.660Z,8.67
2018-11-07T09:36:31.729Z,8.68
2018-11-07T09:39:35.666Z,8.70
2018-11-07T09:42:40.651Z,8.71
2018-11-07T09:45:46.160Z,8.73
2018-11-07T09:48:50.217Z,8.75
2018-11-07T09:51:54.289Z,8.77
2018-11-07T09:54:58.177Z,8.78
2018-11-07T09:58:02.067Z,8.79
2018-11-07T10:01:06.205Z,8.81
2018-11-07T10:04:10.125Z,8.83
2018-11-07T10:07:14.002Z,8.85
2018-11-07T10:10:19.238Z,8.86
2018-11-07T10:13:23.430Z,8.88
2018-11-07T10:16:27.322Z,8.90
2018-11-07T10:19:31.216Z,8.93
2018-11-07T10:22:35.084Z,8.96
2018-11-07T10:25:38.996Z,8.97
2018-11-07T10:28:43.088Z,8.99
2018-11-07T10:31:46.980Z,9.01
2018-11-07T10:34:50.886Z,9.03
2018-11-07T10:37:54.848Z,9.06
2018-11-07T10:40:58.903Z,9.08
2018-11-07T10:44:02.954Z,9.11
2018-11-07T10:47:07.054Z,9.13
2018-11-07T10:50:12.021Z,9.17
2018-11-07T10:53:16.090Z,9.18
2018-11-07T10:56:20.177Z,9.22
2018-11-07T10:59:24.062Z,9.25
2018-11-07T11:02:33.331Z,9.28
2018-11-07T11:05:38.346Z,9.33
2018-11-07T11:08:42.238Z,9.36
2018-11-07T11:11:46.130Z,9.39
2018-11-07T11:14:50.042Z,9.43
2018-11-07T11:17:53.924Z,9.46
2018-11-07T11:20:58.625Z,9.50
2018-11-07T11:24:02.510Z,9.54
2018-11-07T11:27:06.801Z,9.58
2018-11-07T11:30:10.985Z,9.63
2018-11-07T11:33:14.869Z,9.65
2018-11-07T11:36:18.971Z,9.70
2018-11-07T11:39:22.861Z,9.73
2018-11-07T11:42:27.085Z,9.76
2018-11-07T11:45:31.153Z,9.80
2018-11-07T11:48:35.037Z,9.84
2018-11-07T11:51:38.930Z,9.88
2018-11-07T11:54:42.793Z,9.91
2018-11-07T11:57:47.213Z,9.95
2018-11-07T12:00:51.118Z,9.99
2018-11-07T12:03:56.686Z,10.01
2018-11-07T12:07:00.552Z,10.05
2018-11-07T12:10:05.116Z,10.07
2018-11-07T12:13:09.371Z,10.10
2018-11-07T12:16:13.425Z,10.13
2018-11-07T12:19:17.690Z,10.16
2018-11-07T12:22:21.584Z,10.19
2018-11-07T12:25:25.491Z,10.21
2018-11-07T12:28:29.382Z,10.25
2018-11-07T12:31:33.267Z,10.26
2018-11-07T12:34:37.358Z,10.29
2018-11-07T12:37:41.870Z,10.31
2018-11-07T12:40:45.969Z,10.33
2018-11-07T12:43:49.860Z,10.36
2018-11-07T12:46:53.745Z,10.40
2018-11-07T12:49:58.095Z,10.41
2018-11-07T12:53:02.098Z,10.43
2018-11-07T12:56:06.298Z,10.44
2018-11-07T12:59:10.182Z,10.47
2018-11-07T13:02:14.582Z,10.48
2018-11-07T13:05:19.530Z,10.51
2018-11-07T13:08:23.755Z,10.54
2018-11-07T13:11:27.733Z,10.56
2018-11-07T13:14:31.770Z,10.59
2018-11-07T13:17:36.002Z,10.61
2018-11-07T13:20:39.877Z,10.64
2018-11-07T13:23:43.769Z,10.64
2018-11-07T13:26:47.765Z,10.66
2018-11-07T13:29:51.763Z,10.68
2018-11-07T13:32:55.782Z,10.70
2018-11-07T13:35:59.794Z,10.71
2018-11-07T13:39:06.805Z,10.71
2018-11-07T13:42:10.650Z,10.73
2018-11-07T13:45:16.107Z,10.74
2018-11-07T13:48:20.213Z,10.78
2018-11-07T13:51:24.394Z,10.78
2018-11-07T13:54:28.418Z,10.80
2018-11-07T13:57:32.913Z,10.80
2018-11-07T14:00:36.926Z,10.83
2018-11-07T14:03:40.928Z,10.85
2018-11-07T14:06:45.146Z,10.86
2018-11-07T14:09:49.032Z,10.87
2018-11-07T14:12:53.268Z,10.89
2018-11-07T14:15:57.701Z,10.90
2018-11-07T14:19:02.342Z,10.91
2018-11-07T14:22:06.214Z,10.92
2018-11-07T14:25:10.786Z,10.93
2018-11-07T14:28:15.280Z,10.94
2018-11-07T14:31:19.213Z,10.95
2018-11-07T14:34:23.737Z,10.95
2018-11-07T14:37:27.973Z,10.96
2018-11-07T14:40:31.854Z,10.96
2018-11-07T14:43:35.732Z,10.96
2018-11-07T14:46:39.684Z,10.96
2018-11-07T14:49:43.716Z,10.95
2018-11-07T14:52:47.598Z,10.96
2018-11-07T14:55:51.477Z,10.96
2018-11-07T14:58:55.341Z,10.96
2018-11-07T15:01:59.227Z,10.95
2018-11-07T15:05:03.457Z,10.95
2018-11-07T15:08:07.614Z,10.93
2018-11-07T15:11:11.701Z,10.92
2018-11-07T15:14:15.714Z,10.92
2018-11-07T15:17:19.832Z,10.92
2018-11-07T15:20:23.897Z,10.91
2018-11-07T15:23:27.777Z,10.90
2018-11-07T15:26:31.882Z,10.87
2018-11-07T15:29:35.786Z,10.86
2018-11-07T15:32:40.741Z,10.83
2018-11-07T15:35:44.953Z,10.81
2018-11-07T15:38:48.833Z,10.80
2018-11-07T15:41:52.713Z,10.78
2018-11-07T15:44:56.616Z,10.75
2018-11-07T15:48:00.665Z,10.72
2018-11-07T15:51:10.709Z,10.70
2018-11-07T15:54:14.594Z,10.69
2018-11-07T15:57:18.666Z,10.67
2018-11-07T16:00:22.737Z,10.66
2018-11-07T16:03:32.289Z,10.64
2018-11-07T16:06:36.152Z,10.61
2018-11-07T16:09:40.033Z,10.58
2018-11-07T16:12:44.321Z,10.58
2018-11-07T16:15:48.210Z,10.55
2018-11-07T16:18:52.312Z,10.55
2018-11-07T16:21:56.211Z,10.53
2018-11-07T16:25:00.094Z,10.51
2018-11-07T16:28:04.313Z,10.50
2018-11-07T16:31:08.403Z,10.48
2018-11-07T16:34:12.486Z,10.45
2018-11-07T16:37:16.718Z,10.44
2018-11-07T16:40:20.601Z,10.44
2018-11-07T16:43:24.808Z,10.42
2018-11-07T16:46:28.734Z,10.39
2018-11-07T16:49:32.766Z,10.38
2018-11-07T16:52:36.749Z,10.36
2018-11-07T16:55:41.078Z,10.35
2018-11-07T16:58:45.138Z,10.32
2018-11-07T17:01:49.015Z,10.31
2018-11-07T17:04:52.898Z,10.30
2018-11-07T17:07:56.793Z,10.29
2018-11-07T17:11:00.665Z,10.27
2018-11-07T17:14:04.777Z,10.26
2018-11-07T17:17:08.661Z,10.24
2018-11-07T17:20:13.849Z,10.22
2018-11-07T17:23:18.527Z,10.20
2018-11-07T17:26:21.802Z,10.20
2018-11-07T17:29:25.669Z,10.18
2018-11-07T17:32:29.564Z,10.16
2018-11-07T17:35:33.476Z,10.14
2018-11-07T17:38:37.431Z,10.14
2018-11-07T17:41:41.790Z,10.12
2018-11-07T17:46:15.376Z,10.10
2018-11-07T17:49:19.263Z,10.06
2018-11-07T17:52:23.159Z,10.06
2018-11-07T17:55:27.034Z,10.04
2018-11-07T17:58:30.913Z,10.04
2018-11-07T18:01:34.782Z,10.01
2018-11-07T18:04:38.680Z,10.00
2018-11-07T18:07:42.943Z,9.98
2018-11-07T18:10:46.965Z,9.97
2018-11-07T18:13:51.194Z,9.96
2018-11-07T18:16:55.063Z,9.93
2018-11-07T18:19:59.486Z,9.91
2018-11-07T18:23:03.702Z,9.86
2018-11-07T18:26:07.582Z,9.88
2018-11-07T18:29:11.732Z,9.85
2018-11-07T18:32:16.204Z,9.84
2018-11-07T18:35:20.746Z,9.81
2018-11-07T18:38:24.704Z,9.73
2018-11-07T18:41:28.597Z,9.72
2018-11-07T18:44:32.830Z,9.69
2018-11-07T18:47:37.108Z,9.67
2018-11-07T18:50:41.021Z,9.60
2018-11-07T18:53:45.136Z,9.60
2018-11-07T18:56:48.983Z,9.60
2018-11-07T18:59:53.198Z,9.60
2018-11-07T19:02:57.287Z,9.56
2018-11-07T19:06:01.507Z,9.55
2018-11-07T19:09:07.514Z,9.56
2018-11-07T19:12:11.421Z,9.58
2018-11-07T19:15:15.991Z,9.57
2018-11-07T19:18:19.865Z,9.57
2018-11-07T19:21:24.083Z,9.56
2018-11-07T19:24:27.956Z,9.54
2018-11-07T19:27:31.861Z,9.55
2018-11-07T19:30:35.745Z,9.54
2018-11-07T19:33:39.795Z,9.51
2018-11-07T19:36:43.683Z,9.50
2018-11-07T19:39:47.764Z,9.48
2018-11-07T19:42:51.662Z,9.46
2018-11-07T19:45:55.774Z,9.45
2018-11-07T19:48:59.866Z,9.46
2018-11-07T19:52:03.754Z,9.46
2018-11-07T19:55:10.063Z,9.44
2018-11-07T19:58:14.094Z,9.43
2018-11-07T20:01:18.322Z,9.40
2018-11-07T20:04:22.425Z,9.41
2018-11-07T20:07:26.550Z,9.41
2018-11-07T20:10:30.484Z,9.42
2018-11-07T20:13:34.474Z,9.41
2018-11-07T20:16:38.572Z,9.40
2018-11-07T20:19:42.638Z,9.39
2018-11-07T20:22:46.568Z,9.42
2018-11-07T20:25:50.605Z,9.43
2018-11-07T20:28:54.852Z,9.44
2018-11-07T20:31:58.901Z,9.39
2018-11-07T20:35:02.777Z,9.40
2018-11-07T20:38:06.991Z,9.42
2018-11-07T20:41:11.066Z,9.42
2018-11-07T20:44:15.153Z,9.43
2018-11-07T20:47:19.218Z,9.40
2018-11-07T20:50:23.617Z,9.41
2018-11-07T20:53:27.938Z,9.40
2018-11-07T20:56:32.060Z,9.34
2018-11-07T20:59:35.932Z,9.33
2018-11-07T21:02:40.186Z,9.30
2018-11-07T21:05:44.064Z,9.25
2018-11-07T21:08:48.150Z,9.23
2018-11-07T21:11:52.039Z,9.24
2018-11-07T21:14:55.929Z,9.18
2018-11-07T21:17:59.801Z,9.17
2018-11-07T21:21:04.201Z,9.13
2018-11-07T21:24:08.404Z,9.12
2018-11-07T21:27:12.348Z,9.10
2018-11-07T21:30:16.718Z,9.12
2018-11-07T21:33:20.593Z,9.11
2018-11-07T21:36:24.483Z,9.11
2018-11-07T21:39:28.349Z,9.10
2018-11-07T21:42:32.239Z,9.12
2018-11-07T21:45:36.129Z,9.12
2018-11-07T21:48:40.229Z,9.14
2018-11-07T21:51:44.433Z,9.14
2018-11-07T21:54:48.385Z,9.15
2018-11-07T21:57:52.373Z,9.17
2018-11-07T22:00:56.265Z,9.18
2018-11-07T22:04:00.138Z,9.16
2018-11-07T22:07:04.019Z,9.18
2018-11-07T22:10:08.926Z,9.15
2018-11-07T22:13:12.841Z,9.13
2018-11-07T22:16:16.861Z,9.13
2018-11-07T22:19:20.949Z,9.10
2018-11-07T22:22:24.901Z,9.11
2018-11-07T22:25:28.760Z,9.09
2018-11-07T22:28:32.973Z,9.10
2018-11-07T22:31:37.262Z,9.05
2018-11-07T22:34:41.266Z,8.97
2018-11-07T22:37:45.777Z,8.95
2018-11-07T22:40:49.639Z,8.93
2018-11-07T22:43:53.526Z,8.88
2018-11-07T22:46:57.406Z,8.89
2018-11-07T22:50:01.277Z,8.85
2018-11-07T22:53:05.153Z,8.83
2018-11-07T22:56:09.044Z,8.80
2018-11-07T22:59:12.919Z,8.80
2018-11-07T23:02:16.841Z,8.81
2018-11-07T23:05:20.922Z,8.80
2018-11-07T23:08:24.811Z,8.74
2018-11-07T23:11:28.683Z,8.70
2018-11-07T23:14:32.598Z,8.72
2018-11-07T23:17:36.473Z,8.70
2018-11-07T23:20:40.363Z,8.66
2018-11-07T23:23:44.246Z,8.65
2018-11-07T23:26:48.117Z,8.68
2018-11-07T23:29:52.003Z,8.68
2018-11-07T23:32:55.881Z,8.64
2018-11-07T23:35:59.745Z,8.61
2018-11-07T23:39:05.350Z,8.54
2018-11-07T23:42:09.234Z,8.53
2018-11-07T23:45:13.317Z,8.58
2018-11-07T23:48:17.406Z,8.54
2018-11-07T23:51:21.279Z,8.49
2018-11-07T23:54:25.140Z,8.48
2018-11-07T23:57:29.086Z,8.44
